sensor_id;sensor_type;location;lat;lon;timestamp;temperature;humidity
13354;DHT22;6746;50.892;4.064;2022-10-31T00:01:17;13.10;99.90
13354;DHT22;6746;50.892;4.064;2022-10-31T00:04:06;13.10;99.90
13354;DHT22;6746;50.892;4.064;2022-10-31T00:06:54;13.00;99.90
13354;DHT22;6746;50.892;4.064;2022-10-31T00:09:42;12.90;99.90
13354;DHT22;6746;50.892;4.064;2022-10-31T00:12:29;12.80;99.90
13354;DHT22;6746;50.892;4.064;2022-10-31T00:15:17;12.80;99.90
13354;DHT22;6746;50.892;4.064;2022-10-31T00:17:55;12.70;99.90
13354;DHT22;6746;50.892;4.064;2022-10-31T00:20:33;12.70;99.90
13354;DHT22;6746;50.892;4.064;2022-10-31T00:23:21;12.60;99.90
13354;DHT22;6746;50.892;4.064;2022-10-31T00:26:09;12.50;99.90
13354;DHT22;6746;50.892;4.064;2022-10-31T00:28:57;12.50;99.90
13354;DHT22;6746;50.892;4.064;2022-10-31T00:31:44;12.50;99.90
13354;DHT22;6746;50.892;4.064;2022-10-31T00:34:32;12.40;99.90
13354;DHT22;6746;50.892;4.064;2022-10-31T00:37:20;12.30;99.90
13354;DHT22;6746;50.892;4.064;2022-10-31T00:40:00;12.20;99.90
13354;DHT22;6746;50.892;4.064;2022-10-31T00:42:39;12.20;99.90
13354;DHT22;6746;50.892;4.064;2022-10-31T00:45:24;12.10;99.90
13354;DHT22;6746;50.892;4.064;2022-10-31T00:48:02;12.20;99.90
13354;DHT22;6746;50.892;4.064;2022-10-31T00:50:43;12.10;99.90
13354;DHT22;6746;50.892;4.064;2022-10-31T00:53:21;12.10;99.90
13354;DHT22;6746;50.892;4.064;2022-10-31T00:55:59;12.00;99.90
13354;DHT22;6746;50.892;4.064;2022-10-31T00:58:37;12.00;99.90
13354;DHT22;6746;50.892;4.064;2022-10-31T01:01:18;11.90;99.90
13354;DHT22;6746;50.892;4.064;2022-10-31T01:03:56;11.90;99.90
13354;DHT22;6746;50.892;4.064;2022-10-31T01:06:37;11.90;99.90
13354;DHT22;6746;50.892;4.064;2022-10-31T01:09:15;11.80;99.90
13354;DHT22;6746;50.892;4.064;2022-10-31T01:11:53;11.90;99.90
13354;DHT22;6746;50.892;4.064;2022-10-31T01:14:32;11.90;99.90
13354;DHT22;6746;50.892;4.064;2022-10-31T01:17:19;11.80;99.90
13354;DHT22;6746;50.892;4.064;2022-10-31T01:20:05;11.80;99.90
13354;DHT22;6746;50.892;4.064;2022-10-31T01:22:43;11.70;99.90
13354;DHT22;6746;50.892;4.064;2022-10-31T01:25:24;11.70;99.90
13354;DHT22;6746;50.892;4.064;2022-10-31T01:28:02;11.70;99.90
13354;DHT22;6746;50.892;4.064;2022-10-31T01:30:50;11.70;99.90
13354;DHT22;6746;50.892;4.064;2022-10-31T01:33:28;11.70;99.90
13354;DHT22;6746;50.892;4.064;2022-10-31T01:36:16;11.70;99.90
13354;DHT22;6746;50.892;4.064;2022-10-31T01:39:00;11.60;99.90
13354;DHT22;6746;50.892;4.064;2022-10-31T01:41:38;11.60;99.90
13354;DHT22;6746;50.892;4.064;2022-10-31T01:46:55;11.50;99.90
13354;DHT22;6746;50.892;4.064;2022-10-31T01:49:44;11.50;99.90
13354;DHT22;6746;50.892;4.064;2022-10-31T01:52:30;11.40;99.90
13354;DHT22;6746;50.892;4.064;2022-10-31T01:55:20;11.40;99.90
13354;DHT22;6746;50.892;4.064;2022-10-31T01:58:13;11.40;99.90
13354;DHT22;6746;50.892;4.064;2022-10-31T02:01:00;11.30;99.90
13354;DHT22;6746;50.892;4.064;2022-10-31T02:03:48;11.20;99.90
13354;DHT22;6746;50.892;4.064;2022-10-31T02:06:41;11.20;99.90
13354;DHT22;6746;50.892;4.064;2022-10-31T02:09:25;11.20;99.90
13354;DHT22;6746;50.892;4.064;2022-10-31T02:12:04;11.20;99.90
13354;DHT22;6746;50.892;4.064;2022-10-31T02:14:47;11.20;99.90
13354;DHT22;6746;50.892;4.064;2022-10-31T02:17:25;11.10;99.90
13354;DHT22;6746;50.892;4.064;2022-10-31T02:20:17;11.10;99.90
13354;DHT22;6746;50.892;4.064;2022-10-31T02:45:00;10.70;99.90
13354;DHT22;6746;50.892;4.064;2022-10-31T02:47:39;10.70;99.90
13354;DHT22;6746;50.892;4.064;2022-10-31T02:50:19;10.70;99.90
13354;DHT22;6746;50.892;4.064;2022-10-31T02:52:59;10.70;99.90
13354;DHT22;6746;50.892;4.064;2022-10-31T02:58:15;10.70;99.90
13354;DHT22;6746;50.892;4.064;2022-10-31T03:03:43;10.70;99.90
13354;DHT22;6746;50.892;4.064;2022-10-31T03:06:23;10.60;99.90
13354;DHT22;6746;50.892;4.064;2022-10-31T03:09:12;10.60;99.90
13354;DHT22;6746;50.892;4.064;2022-10-31T03:12:21;10.50;99.90
13354;DHT22;6746;50.892;4.064;2022-10-31T03:20:58;10.40;99.90
13354;DHT22;6746;50.892;4.064;2022-10-31T03:23:30;10.40;99.90
13354;DHT22;6746;50.892;4.064;2022-10-31T03:26:09;10.40;99.90
13354;DHT22;6746;50.892;4.064;2022-10-31T03:29:09;10.40;99.90
13354;DHT22;6746;50.892;4.064;2022-10-31T03:31:33;10.40;99.90
13354;DHT22;6746;50.892;4.064;2022-10-31T03:34:09;10.30;99.90
13354;DHT22;6746;50.892;4.064;2022-10-31T03:36:48;10.30;99.90
13354;DHT22;6746;50.892;4.064;2022-10-31T03:39:25;10.30;99.90
13354;DHT22;6746;50.892;4.064;2022-10-31T03:42:13;10.20;99.90
13354;DHT22;6746;50.892;4.064;2022-10-31T03:44:57;10.20;99.90
13354;DHT22;6746;50.892;4.064;2022-10-31T03:48:02;10.20;99.90
13354;DHT22;6746;50.892;4.064;2022-10-31T04:00:11;10.10;99.90
13354;DHT22;6746;50.892;4.064;2022-10-31T04:03:10;10.10;99.90
13354;DHT22;6746;50.892;4.064;2022-10-31T04:06:00;10.20;99.90
13354;DHT22;6746;50.892;4.064;2022-10-31T04:08:49;10.20;99.90
13354;DHT22;6746;50.892;4.064;2022-10-31T04:11:38;10.20;99.90
13354;DHT22;6746;50.892;4.064;2022-10-31T04:14:25;10.10;99.90
13354;DHT22;6746;50.892;4.064;2022-10-31T04:17:14;10.10;99.90
13354;DHT22;6746;50.892;4.064;2022-10-31T04:20:02;10.10;99.90
13354;DHT22;6746;50.892;4.064;2022-10-31T04:22:49;10.00;99.90
13354;DHT22;6746;50.892;4.064;2022-10-31T04:25:38;9.90;99.90
13354;DHT22;6746;50.892;4.064;2022-10-31T04:28:26;9.90;99.90
13354;DHT22;6746;50.892;4.064;2022-10-31T04:31:14;9.80;99.90
13354;DHT22;6746;50.892;4.064;2022-10-31T04:33:58;9.80;99.90
13354;DHT22;6746;50.892;4.064;2022-10-31T04:36:36;9.80;99.90
13354;DHT22;6746;50.892;4.064;2022-10-31T04:39:24;9.70;99.90
13354;DHT22;6746;50.892;4.064;2022-10-31T04:42:05;9.70;99.90
13354;DHT22;6746;50.892;4.064;2022-10-31T04:44:44;9.70;99.90
13354;DHT22;6746;50.892;4.064;2022-10-31T04:47:32;9.70;99.90
13354;DHT22;6746;50.892;4.064;2022-10-31T04:50:19;9.80;99.90
13354;DHT22;6746;50.892;4.064;2022-10-31T04:53:08;9.80;99.90
13354;DHT22;6746;50.892;4.064;2022-10-31T04:55:57;9.80;99.90
13354;DHT22;6746;50.892;4.064;2022-10-31T04:58:49;9.90;99.90
13354;DHT22;6746;50.892;4.064;2022-10-31T05:01:38;9.80;99.90
13354;DHT22;6746;50.892;4.064;2022-10-31T05:04:26;9.80;99.90
13354;DHT22;6746;50.892;4.064;2022-10-31T05:07:14;9.80;99.90
13354;DHT22;6746;50.892;4.064;2022-10-31T05:09:53;9.80;99.90
13354;DHT22;6746;50.892;4.064;2022-10-31T05:12:31;9.80;99.90
13354;DHT22;6746;50.892;4.064;2022-10-31T05:15:09;9.80;99.90
13354;DHT22;6746;50.892;4.064;2022-10-31T05:17:48;9.80;99.90
13354;DHT22;6746;50.892;4.064;2022-10-31T05:20:36;9.80;99.90
13354;DHT22;6746;50.892;4.064;2022-10-31T05:23:17;9.80;99.90
13354;DHT22;6746;50.892;4.064;2022-10-31T05:25:55;9.90;99.90
13354;DHT22;6746;50.892;4.064;2022-10-31T05:28:41;9.90;99.90
13354;DHT22;6746;50.892;4.064;2022-10-31T05:31:19;9.90;99.90
13354;DHT22;6746;50.892;4.064;2022-10-31T05:34:00;9.90;99.90
13354;DHT22;6746;50.892;4.064;2022-10-31T05:36:38;9.90;99.90
13354;DHT22;6746;50.892;4.064;2022-10-31T05:39:21;9.90;99.90
13354;DHT22;6746;50.892;4.064;2022-10-31T05:41:59;10.00;99.90
13354;DHT22;6746;50.892;4.064;2022-10-31T05:44:38;10.00;99.90
13354;DHT22;6746;50.892;4.064;2022-10-31T05:47:16;10.00;99.90
13354;DHT22;6746;50.892;4.064;2022-10-31T05:49:55;10.00;99.90
13354;DHT22;6746;50.892;4.064;2022-10-31T05:52:33;10.00;99.90
13354;DHT22;6746;50.892;4.064;2022-10-31T05:55:14;10.00;99.90
13354;DHT22;6746;50.892;4.064;2022-10-31T05:57:53;10.00;99.90
13354;DHT22;6746;50.892;4.064;2022-10-31T06:00:40;10.10;99.90
13354;DHT22;6746;50.892;4.064;2022-10-31T06:03:27;10.10;99.90
13354;DHT22;6746;50.892;4.064;2022-10-31T06:06:05;10.10;99.90
13354;DHT22;6746;50.892;4.064;2022-10-31T06:08:44;10.20;99.90
13354;DHT22;6746;50.892;4.064;2022-10-31T06:11:22;10.20;99.90
13354;DHT22;6746;50.892;4.064;2022-10-31T06:14:03;10.30;99.90
13354;DHT22;6746;50.892;4.064;2022-10-31T06:16:41;10.40;99.90
13354;DHT22;6746;50.892;4.064;2022-10-31T06:19:27;10.40;99.90
13354;DHT22;6746;50.892;4.064;2022-10-31T06:22:06;10.40;99.90
13354;DHT22;6746;50.892;4.064;2022-10-31T06:24:49;10.40;99.90
13354;DHT22;6746;50.892;4.064;2022-10-31T06:27:27;10.40;99.90
13354;DHT22;6746;50.892;4.064;2022-10-31T06:30:15;10.50;99.90
13354;DHT22;6746;50.892;4.064;2022-10-31T06:32:53;10.50;99.90
13354;DHT22;6746;50.892;4.064;2022-10-31T06:35:32;10.50;99.90
13354;DHT22;6746;50.892;4.064;2022-10-31T06:38:13;10.50;99.90
13354;DHT22;6746;50.892;4.064;2022-10-31T06:40:51;10.50;99.90
13354;DHT22;6746;50.892;4.064;2022-10-31T06:43:29;10.50;99.90
13354;DHT22;6746;50.892;4.064;2022-10-31T06:46:08;10.50;99.90
13354;DHT22;6746;50.892;4.064;2022-10-31T06:48:55;10.50;99.90
13354;DHT22;6746;50.892;4.064;2022-10-31T06:51:27;10.50;99.90
13354;DHT22;6746;50.892;4.064;2022-10-31T06:54:01;10.60;99.90
13354;DHT22;6746;50.892;4.064;2022-10-31T06:56:40;10.70;99.90
13354;DHT22;6746;50.892;4.064;2022-10-31T06:59:18;10.70;99.90
13354;DHT22;6746;50.892;4.064;2022-10-31T07:01:49;10.70;99.90
13354;DHT22;6746;50.892;4.064;2022-10-31T07:04:18;10.80;99.90
13354;DHT22;6746;50.892;4.064;2022-10-31T07:06:56;10.80;99.90
13354;DHT22;6746;50.892;4.064;2022-10-31T07:09:37;10.90;99.90
13354;DHT22;6746;50.892;4.064;2022-10-31T07:12:05;10.90;99.90
13354;DHT22;6746;50.892;4.064;2022-10-31T07:14:37;11.00;99.90
13354;DHT22;6746;50.892;4.064;2022-10-31T07:17:16;11.00;99.90
13354;DHT22;6746;50.892;4.064;2022-10-31T07:19:54;11.10;99.90
13354;DHT22;6746;50.892;4.064;2022-10-31T07:22:33;11.10;99.90
13354;DHT22;6746;50.892;4.064;2022-10-31T07:25:03;11.20;99.90
13354;DHT22;6746;50.892;4.064;2022-10-31T07:27:38;11.30;99.90
13354;DHT22;6746;50.892;4.064;2022-10-31T07:30:09;11.30;99.90
13354;DHT22;6746;50.892;4.064;2022-10-31T07:32:40;11.30;99.90
13354;DHT22;6746;50.892;4.064;2022-10-31T07:35:13;11.30;99.90
13354;DHT22;6746;50.892;4.064;2022-10-31T07:37:43;11.40;99.90
13354;DHT22;6746;50.892;4.064;2022-10-31T07:40:22;11.40;99.90
13354;DHT22;6746;50.892;4.064;2022-10-31T07:43:00;11.50;99.90
13354;DHT22;6746;50.892;4.064;2022-10-31T07:45:38;11.50;99.90
13354;DHT22;6746;50.892;4.064;2022-10-31T07:51:10;11.70;99.90
13354;DHT22;6746;50.892;4.064;2022-10-31T07:53:48;11.70;99.90
13354;DHT22;6746;50.892;4.064;2022-10-31T07:56:19;11.80;99.90
13354;DHT22;6746;50.892;4.064;2022-10-31T07:58:51;11.80;99.90
13354;DHT22;6746;50.892;4.064;2022-10-31T08:01:29;11.90;99.90
13354;DHT22;6746;50.892;4.064;2022-10-31T08:04:01;11.90;99.90
13354;DHT22;6746;50.892;4.064;2022-10-31T08:06:29;12.00;99.90
13354;DHT22;6746;50.892;4.064;2022-10-31T08:09:07;12.10;99.90
13354;DHT22;6746;50.892;4.064;2022-10-31T08:11:35;12.10;99.90
13354;DHT22;6746;50.892;4.064;2022-10-31T08:14:04;12.30;99.90
13354;DHT22;6746;50.892;4.064;2022-10-31T08:16:42;12.40;99.90
13354;DHT22;6746;50.892;4.064;2022-10-31T08:19:13;12.40;99.90
13354;DHT22;6746;50.892;4.064;2022-10-31T08:21:41;12.50;99.90
13354;DHT22;6746;50.892;4.064;2022-10-31T08:24:19;12.50;99.90
13354;DHT22;6746;50.892;4.064;2022-10-31T08:26:53;12.60;99.90
13354;DHT22;6746;50.892;4.064;2022-10-31T08:29:22;12.60;99.90
13354;DHT22;6746;50.892;4.064;2022-10-31T08:32:00;12.70;99.90
13354;DHT22;6746;50.892;4.064;2022-10-31T08:34:38;12.70;99.90
13354;DHT22;6746;50.892;4.064;2022-10-31T08:37:16;12.80;99.90
13354;DHT22;6746;50.892;4.064;2022-10-31T08:39:55;12.80;99.90
13354;DHT22;6746;50.892;4.064;2022-10-31T08:42:33;12.80;99.90
13354;DHT22;6746;50.892;4.064;2022-10-31T08:45:13;12.80;99.90
13354;DHT22;6746;50.892;4.064;2022-10-31T08:47:42;12.80;99.90
13354;DHT22;6746;50.892;4.064;2022-10-31T08:50:20;12.80;99.90
13354;DHT22;6746;50.892;4.064;2022-10-31T08:52:51;12.80;99.90
13354;DHT22;6746;50.892;4.064;2022-10-31T08:55:20;12.90;99.90
13354;DHT22;6746;50.892;4.064;2022-10-31T08:57:48;12.90;99.90
13354;DHT22;6746;50.892;4.064;2022-10-31T09:00:16;13.00;99.90
13354;DHT22;6746;50.892;4.064;2022-10-31T09:02:47;13.00;99.90
13354;DHT22;6746;50.892;4.064;2022-10-31T09:05:18;13.00;99.90
13354;DHT22;6746;50.892;4.064;2022-10-31T09:07:56;13.10;99.90
13354;DHT22;6746;50.892;4.064;2022-10-31T09:10:34;13.10;99.90
13354;DHT22;6746;50.892;4.064;2022-10-31T09:13:13;13.10;99.90
13354;DHT22;6746;50.892;4.064;2022-10-31T09:15:50;13.10;99.90
13354;DHT22;6746;50.892;4.064;2022-10-31T09:18:28;13.10;99.90
13354;DHT22;6746;50.892;4.064;2022-10-31T09:21:07;13.10;99.90
13354;DHT22;6746;50.892;4.064;2022-10-31T09:23:54;13.10;99.90
13354;DHT22;6746;50.892;4.064;2022-10-31T09:26:41;13.10;99.90
13354;DHT22;6746;50.892;4.064;2022-10-31T09:29:29;13.20;99.90
13354;DHT22;6746;50.892;4.064;2022-10-31T09:32:07;13.20;99.90
13354;DHT22;6746;50.892;4.064;2022-10-31T09:34:45;13.20;99.90
13354;DHT22;6746;50.892;4.064;2022-10-31T09:37:30;13.30;99.90
13354;DHT22;6746;50.892;4.064;2022-10-31T09:40:08;13.30;99.90
13354;DHT22;6746;50.892;4.064;2022-10-31T09:43:00;13.30;99.90
13354;DHT22;6746;50.892;4.064;2022-10-31T09:48:36;13.30;99.90
13354;DHT22;6746;50.892;4.064;2022-10-31T09:51:25;13.40;99.90
13354;DHT22;6746;50.892;4.064;2022-10-31T09:54:12;13.40;99.90
13354;DHT22;6746;50.892;4.064;2022-10-31T09:56:48;13.50;99.90
13354;DHT22;6746;50.892;4.064;2022-10-31T09:59:28;13.60;99.90
13354;DHT22;6746;50.892;4.064;2022-10-31T10:05:30;13.90;99.90
13354;DHT22;6746;50.892;4.064;2022-10-31T10:08:12;13.90;99.90
13354;DHT22;6746;50.892;4.064;2022-10-31T10:10:59;14.00;99.90
13354;DHT22;6746;50.892;4.064;2022-10-31T10:20:10;14.30;99.90
13354;DHT22;6746;50.892;4.064;2022-10-31T10:23:11;14.40;99.90
13354;DHT22;6746;50.892;4.064;2022-10-31T10:25:43;14.50;99.90
13354;DHT22;6746;50.892;4.064;2022-10-31T10:28:31;14.50;99.90
13354;DHT22;6746;50.892;4.064;2022-10-31T10:31:15;14.60;99.90
13354;DHT22;6746;50.892;4.064;2022-10-31T10:37:07;14.90;99.90
13354;DHT22;6746;50.892;4.064;2022-10-31T10:39:35;15.00;99.90
13354;DHT22;6746;50.892;4.064;2022-10-31T10:42:04;15.10;99.90
13354;DHT22;6746;50.892;4.064;2022-10-31T10:44:58;15.20;99.90
13354;DHT22;6746;50.892;4.064;2022-10-31T10:48:00;15.30;99.90
13354;DHT22;6746;50.892;4.064;2022-10-31T10:50:36;15.30;99.90
13354;DHT22;6746;50.892;4.064;2022-10-31T10:53:24;15.40;99.90
13354;DHT22;6746;50.892;4.064;2022-10-31T10:55:56;15.40;99.90
13354;DHT22;6746;50.892;4.064;2022-10-31T10:58:42;15.50;99.90
13354;DHT22;6746;50.892;4.064;2022-10-31T11:01:21;15.60;99.90
13354;DHT22;6746;50.892;4.064;2022-10-31T11:03:58;15.60;99.90
13354;DHT22;6746;50.892;4.064;2022-10-31T11:06:36;15.60;99.90
13354;DHT22;6746;50.892;4.064;2022-10-31T11:09:15;15.70;99.90
13354;DHT22;6746;50.892;4.064;2022-10-31T11:11:48;15.70;99.90
13354;DHT22;6746;50.892;4.064;2022-10-31T11:14:17;15.70;99.90
13354;DHT22;6746;50.892;4.064;2022-10-31T11:16:50;15.70;99.90
13354;DHT22;6746;50.892;4.064;2022-10-31T11:19:26;15.80;99.90
13354;DHT22;6746;50.892;4.064;2022-10-31T11:22:05;15.80;99.90
13354;DHT22;6746;50.892;4.064;2022-10-31T11:24:36;15.90;99.90
13354;DHT22;6746;50.892;4.064;2022-10-31T11:27:15;15.90;99.90
13354;DHT22;6746;50.892;4.064;2022-10-31T11:30:05;16.00;99.90
13354;DHT22;6746;50.892;4.064;2022-10-31T11:32:43;16.00;99.90
13354;DHT22;6746;50.892;4.064;2022-10-31T11:35:10;16.10;99.90
13354;DHT22;6746;50.892;4.064;2022-10-31T11:37:46;16.20;99.90
13354;DHT22;6746;50.892;4.064;2022-10-31T11:40:14;16.30;99.90
13354;DHT22;6746;50.892;4.064;2022-10-31T11:42:53;16.40;99.90
13354;DHT22;6746;50.892;4.064;2022-10-31T11:45:34;16.50;99.90
13354;DHT22;6746;50.892;4.064;2022-10-31T11:48:14;16.60;99.90
13354;DHT22;6746;50.892;4.064;2022-10-31T11:50:39;16.70;99.90
13354;DHT22;6746;50.892;4.064;2022-10-31T11:53:21;16.90;99.90
13354;DHT22;6746;50.892;4.064;2022-10-31T11:59:02;17.00;99.90
13354;DHT22;6746;50.892;4.064;2022-10-31T12:01:45;17.10;99.90
13354;DHT22;6746;50.892;4.064;2022-10-31T12:04:18;17.10;99.90
13354;DHT22;6746;50.892;4.064;2022-10-31T12:07:06;17.20;99.90
13354;DHT22;6746;50.892;4.064;2022-10-31T12:09:44;17.30;99.90
13354;DHT22;6746;50.892;4.064;2022-10-31T12:15:29;17.40;99.90
13354;DHT22;6746;50.892;4.064;2022-10-31T12:21:32;17.40;99.90
13354;DHT22;6746;50.892;4.064;2022-10-31T12:30:51;17.50;99.90
13354;DHT22;6746;50.892;4.064;2022-10-31T12:36:57;17.70;99.90
13354;DHT22;6746;50.892;4.064;2022-10-31T12:43:28;17.80;99.90
13354;DHT22;6746;50.892;4.064;2022-10-31T12:46:04;17.80;99.90
13354;DHT22;6746;50.892;4.064;2022-10-31T12:54:42;18.10;99.90
13354;DHT22;6746;50.892;4.064;2022-10-31T12:57:23;18.10;99.90
13354;DHT22;6746;50.892;4.064;2022-10-31T13:05:31;18.10;99.90
13354;DHT22;6746;50.892;4.064;2022-10-31T13:08:03;18.30;99.90
13354;DHT22;6746;50.892;4.064;2022-10-31T13:10:47;18.50;99.90
13354;DHT22;6746;50.892;4.064;2022-10-31T13:13:24;18.70;99.90
13354;DHT22;6746;50.892;4.064;2022-10-31T13:15:55;18.80;99.90
13354;DHT22;6746;50.892;4.064;2022-10-31T13:18:35;18.90;99.90
13354;DHT22;6746;50.892;4.064;2022-10-31T13:21:03;19.00;99.90
13354;DHT22;6746;50.892;4.064;2022-10-31T13:23:40;19.10;99.90
13354;DHT22;6746;50.892;4.064;2022-10-31T13:26:21;19.10;99.90
13354;DHT22;6746;50.892;4.064;2022-10-31T13:31:30;19.10;99.90
13354;DHT22;6746;50.892;4.064;2022-10-31T13:34:03;19.00;99.90
13354;DHT22;6746;50.892;4.064;2022-10-31T13:36:50;19.00;99.90
13354;DHT22;6746;50.892;4.064;2022-10-31T13:45:55;19.00;99.90
13354;DHT22;6746;50.892;4.064;2022-10-31T13:48:37;19.00;99.90
13354;DHT22;6746;50.892;4.064;2022-10-31T13:51:13;19.00;99.90
13354;DHT22;6746;50.892;4.064;2022-10-31T13:56:24;19.00;99.90
13354;DHT22;6746;50.892;4.064;2022-10-31T14:02:10;19.00;99.90
13354;DHT22;6746;50.892;4.064;2022-10-31T14:04:51;19.10;99.90
13354;DHT22;6746;50.892;4.064;2022-10-31T14:07:22;19.00;99.90
13354;DHT22;6746;50.892;4.064;2022-10-31T14:10:06;19.00;99.90
13354;DHT22;6746;50.892;4.064;2022-10-31T14:12:45;19.00;99.90
13354;DHT22;6746;50.892;4.064;2022-10-31T14:15:21;19.00;99.90
13354;DHT22;6746;50.892;4.064;2022-10-31T14:18:03;19.00;99.90
13354;DHT22;6746;50.892;4.064;2022-10-31T14:20:40;18.90;99.90
13354;DHT22;6746;50.892;4.064;2022-10-31T14:28:56;18.70;99.90
13354;DHT22;6746;50.892;4.064;2022-10-31T14:31:37;18.70;99.90
13354;DHT22;6746;50.892;4.064;2022-10-31T14:49:49;18.90;99.90
13354;DHT22;6746;50.892;4.064;2022-10-31T14:52:41;18.80;99.90
13354;DHT22;6746;50.892;4.064;2022-10-31T14:55:19;18.70;99.90
13354;DHT22;6746;50.892;4.064;2022-10-31T14:57:58;18.70;99.90
13354;DHT22;6746;50.892;4.064;2022-10-31T15:00:50;18.70;99.90
13354;DHT22;6746;50.892;4.064;2022-10-31T15:03:33;18.60;99.90
13354;DHT22;6746;50.892;4.064;2022-10-31T15:06:14;18.60;99.90
13354;DHT22;6746;50.892;4.064;2022-10-31T15:08:52;18.50;99.90
13354;DHT22;6746;50.892;4.064;2022-10-31T15:11:39;18.40;99.90
13354;DHT22;6746;50.892;4.064;2022-10-31T15:14:17;18.40;99.90
13354;DHT22;6746;50.892;4.064;2022-10-31T15:16:40;18.30;99.90
13354;DHT22;6746;50.892;4.064;2022-10-31T15:19:25;18.30;99.90
13354;DHT22;6746;50.892;4.064;2022-10-31T15:21:59;18.20;99.90
13354;DHT22;6746;50.892;4.064;2022-10-31T15:24:37;18.20;99.90
13354;DHT22;6746;50.892;4.064;2022-10-31T15:27:16;18.10;99.90
13354;DHT22;6746;50.892;4.064;2022-10-31T15:29:56;18.10;99.90
13354;DHT22;6746;50.892;4.064;2022-10-31T15:32:34;18.00;99.90
13354;DHT22;6746;50.892;4.064;2022-10-31T15:35:19;18.00;99.90
13354;DHT22;6746;50.892;4.064;2022-10-31T15:37:40;17.90;99.90
13354;DHT22;6746;50.892;4.064;2022-10-31T15:40:19;17.90;99.90
13354;DHT22;6746;50.892;4.064;2022-10-31T15:43:07;17.80;99.90
13354;DHT22;6746;50.892;4.064;2022-10-31T15:45:55;17.80;99.90
13354;DHT22;6746;50.892;4.064;2022-10-31T15:48:33;17.80;99.90
13354;DHT22;6746;50.892;4.064;2022-10-31T15:51:11;17.70;99.90
13354;DHT22;6746;50.892;4.064;2022-10-31T15:53:50;17.70;99.90
13354;DHT22;6746;50.892;4.064;2022-10-31T15:56:30;17.60;99.90
13354;DHT22;6746;50.892;4.064;2022-10-31T15:59:11;17.50;99.90
13354;DHT22;6746;50.892;4.064;2022-10-31T16:01:58;17.40;99.90
13354;DHT22;6746;50.892;4.064;2022-10-31T16:04:34;17.30;99.90
13354;DHT22;6746;50.892;4.064;2022-10-31T16:07:16;17.20;99.90
13354;DHT22;6746;50.892;4.064;2022-10-31T16:09:50;17.10;99.90
13354;DHT22;6746;50.892;4.064;2022-10-31T16:12:42;17.10;99.90
13354;DHT22;6746;50.892;4.064;2022-10-31T16:15:26;17.00;99.90
13354;DHT22;6746;50.892;4.064;2022-10-31T16:18:10;16.90;99.90
13354;DHT22;6746;50.892;4.064;2022-10-31T16:20:36;16.80;99.90
13354;DHT22;6746;50.892;4.064;2022-10-31T16:23:15;16.70;99.90
13354;DHT22;6746;50.892;4.064;2022-10-31T16:25:53;16.70;99.90
13354;DHT22;6746;50.892;4.064;2022-10-31T16:28:22;16.60;99.90
13354;DHT22;6746;50.892;4.064;2022-10-31T16:30:56;16.50;99.90
13354;DHT22;6746;50.892;4.064;2022-10-31T16:33:37;16.40;99.90
13354;DHT22;6746;50.892;4.064;2022-10-31T16:39:09;16.30;99.90
13354;DHT22;6746;50.892;4.064;2022-10-31T16:41:57;16.30;99.90
13354;DHT22;6746;50.892;4.064;2022-10-31T16:44:45;16.30;99.90
13354;DHT22;6746;50.892;4.064;2022-10-31T16:47:26;16.30;99.90
13354;DHT22;6746;50.892;4.064;2022-10-31T16:50:12;16.20;99.90
13354;DHT22;6746;50.892;4.064;2022-10-31T16:52:51;16.20;99.90
13354;DHT22;6746;50.892;4.064;2022-10-31T16:55:29;16.20;99.90
13354;DHT22;6746;50.892;4.064;2022-10-31T16:58:07;16.10;99.90
13354;DHT22;6746;50.892;4.064;2022-10-31T17:00:46;16.00;99.90
13354;DHT22;6746;50.892;4.064;2022-10-31T17:03:29;16.00;99.90
13354;DHT22;6746;50.892;4.064;2022-10-31T17:06:11;15.90;99.90
13354;DHT22;6746;50.892;4.064;2022-10-31T17:08:48;15.80;99.90
13354;DHT22;6746;50.892;4.064;2022-10-31T17:11:26;15.80;99.90
13354;DHT22;6746;50.892;4.064;2022-10-31T17:14:14;15.70;99.90
13354;DHT22;6746;50.892;4.064;2022-10-31T17:16:52;15.70;99.90
13354;DHT22;6746;50.892;4.064;2022-10-31T17:19:30;15.70;99.90
13354;DHT22;6746;50.892;4.064;2022-10-31T17:22:10;15.60;99.90
13354;DHT22;6746;50.892;4.064;2022-10-31T17:24:51;15.70;99.90
13354;DHT22;6746;50.892;4.064;2022-10-31T17:27:30;15.60;99.90
13354;DHT22;6746;50.892;4.064;2022-10-31T17:30:11;15.70;99.90
13354;DHT22;6746;50.892;4.064;2022-10-31T17:32:54;15.80;99.90
13354;DHT22;6746;50.892;4.064;2022-10-31T17:35:36;15.90;99.90
13354;DHT22;6746;50.892;4.064;2022-10-31T17:38:14;15.90;99.90
13354;DHT22;6746;50.892;4.064;2022-10-31T17:40:54;16.00;99.90
13354;DHT22;6746;50.892;4.064;2022-10-31T17:43:32;16.10;99.90
13354;DHT22;6746;50.892;4.064;2022-10-31T17:46:10;16.10;99.90
13354;DHT22;6746;50.892;4.064;2022-10-31T17:48:58;16.10;99.90
13354;DHT22;6746;50.892;4.064;2022-10-31T17:51:44;16.10;99.90
13354;DHT22;6746;50.892;4.064;2022-10-31T17:54:23;16.20;99.90
13354;DHT22;6746;50.892;4.064;2022-10-31T17:57:04;16.20;99.90
13354;DHT22;6746;50.892;4.064;2022-10-31T17:59:42;16.10;99.90
13354;DHT22;6746;50.892;4.064;2022-10-31T18:02:23;16.20;99.90
13354;DHT22;6746;50.892;4.064;2022-10-31T18:05:01;16.20;99.90
13354;DHT22;6746;50.892;4.064;2022-10-31T18:07:49;16.20;99.90
13354;DHT22;6746;50.892;4.064;2022-10-31T18:10:30;16.10;99.90
13354;DHT22;6746;50.892;4.064;2022-10-31T18:13:08;16.10;99.90
13354;DHT22;6746;50.892;4.064;2022-10-31T18:15:54;16.00;99.90
13354;DHT22;6746;50.892;4.064;2022-10-31T18:18:32;16.10;99.90
13354;DHT22;6746;50.892;4.064;2022-10-31T18:21:15;16.10;99.90
13354;DHT22;6746;50.892;4.064;2022-10-31T18:23:56;16.10;99.90
13354;DHT22;6746;50.892;4.064;2022-10-31T18:26:44;16.00;99.90
13354;DHT22;6746;50.892;4.064;2022-10-31T18:29:24;16.10;99.90
13354;DHT22;6746;50.892;4.064;2022-10-31T18:32:03;16.00;99.90
13354;DHT22;6746;50.892;4.064;2022-10-31T18:34:50;16.00;99.90
13354;DHT22;6746;50.892;4.064;2022-10-31T18:37:29;16.00;99.90
13354;DHT22;6746;50.892;4.064;2022-10-31T18:40:07;16.00;99.90
13354;DHT22;6746;50.892;4.064;2022-10-31T18:42:46;16.00;99.90
13354;DHT22;6746;50.892;4.064;2022-10-31T18:45:24;16.00;99.90
13354;DHT22;6746;50.892;4.064;2022-10-31T18:48:05;15.90;99.90
13354;DHT22;6746;50.892;4.064;2022-10-31T18:50:43;15.90;99.90
13354;DHT22;6746;50.892;4.064;2022-10-31T18:53:31;15.90;99.90
13354;DHT22;6746;50.892;4.064;2022-10-31T18:56:18;15.90;99.90
13354;DHT22;6746;50.892;4.064;2022-10-31T18:59:06;15.90;99.90
13354;DHT22;6746;50.892;4.064;2022-10-31T19:01:54;16.00;99.90
13354;DHT22;6746;50.892;4.064;2022-10-31T19:04:36;16.00;99.90
13354;DHT22;6746;50.892;4.064;2022-10-31T19:07:14;16.00;99.90
13354;DHT22;6746;50.892;4.064;2022-10-31T19:09:52;16.00;99.90
13354;DHT22;6746;50.892;4.064;2022-10-31T19:12:31;16.00;99.90
13354;DHT22;6746;50.892;4.064;2022-10-31T19:15:08;16.00;99.90
13354;DHT22;6746;50.892;4.064;2022-10-31T19:17:46;16.00;99.90
13354;DHT22;6746;50.892;4.064;2022-10-31T19:20:25;16.00;99.90
13354;DHT22;6746;50.892;4.064;2022-10-31T19:23:03;16.00;99.90
13354;DHT22;6746;50.892;4.064;2022-10-31T19:25:46;15.90;99.90
13354;DHT22;6746;50.892;4.064;2022-10-31T19:28:24;16.00;99.90